Time;durP1;ratioP1;P1;durP2;ratioP2;P2;SDS_P1;SDS_P2;PMS_P1;PMS_P2;Temp;Humidity;BMP_temperature;BMP_pressure;BME280_temperature;BME280_humidity;BME280_pressure;Samples;Min_cycle;Max_cycle;Signal;HPM_P1;HPM_P2
2021/03/10 00:03:18;;;;;;;1999.90;999.90;;;;;;;0.48;51.67;101433.31;15830246;28;20052;-61
2021/03/10 00:10:50;;;;;;;1999.90;999.90;;;;;;;0.48;51.76;101434.16;15828554;28;20048;-61
2021/03/10 00:18:22;;;;;;;1999.90;999.90;;;;;;;0.56;51.22;101444.72;15842260;28;20513;-61
2021/03/10 00:25:54;;;;;;;1999.90;999.90;;;;;;;0.88;51.69;101446.06;15824117;28;20120;-61
2021/03/10 00:33:25;;;;;;;1999.90;999.90;;;;;;;0.74;51.41;101440.09;15814255;28;20492;-61
2021/03/10 00:40:57;;;;;;;1999.90;999.90;;;;;;;0.63;51.55;101443.75;15852848;28;20046;-61
2021/03/10 00:48:29;;;;;;;1999.90;999.90;;;;;;;0.25;52.88;101432.38;15827548;28;20523;-60
2021/03/10 00:56:01;;;;;;;1999.90;999.90;;;;;;;-0.01;52.75;101422.81;15832557;28;20102;-61
2021/03/10 01:03:32;;;;;;;1999.90;999.90;;;;;;;0.27;52.48;101421.97;15846028;28;20508;-61
2021/03/10 01:11:05;;;;;;;1999.90;999.90;;;;;;;0.26;52.86;101411.25;15818252;28;20135;-62
2021/03/10 01:18:37;;;;;;;1999.90;999.90;;;;;;;-0.27;54.27;101417.13;15851972;28;20047;-61
2021/03/10 01:26:09;;;;;;;1999.90;999.90;;;;;;;-0.28;53.67;101419.03;15800988;28;20109;-61
2021/03/10 01:33:41;;;;;;;1999.90;999.90;;;;;;;-0.26;53.85;101408.63;15824053;28;20074;-63
2021/03/10 01:41:13;;;;;;;1999.90;999.90;;;;;;;-0.33;54.81;101407.94;15828377;28;20123;-61
2021/03/10 01:48:45;;;;;;;1999.90;999.90;;;;;;;0.14;54.27;101422.31;15855721;28;20048;-62
2021/03/10 01:56:20;;;;;;;1999.90;999.90;;;;;;;0.29;53.23;101408.84;15843278;28;20369;-61
2021/03/10 02:03:52;;;;;;;1999.90;999.90;;;;;;;-0.06;53.58;101411.78;15833433;28;20450;-62
2021/03/10 02:11:31;;;;;;;1999.90;999.90;;;;;;;-0.33;54.39;101407.94;15832036;28;20196;-62
2021/03/10 02:19:11;;;;;;;1999.90;999.90;;;;;;;-0.61;55.14;101400.53;15846607;28;20048;-62
2021/03/10 02:27:09;;;;;;;1999.90;999.90;;;;;;;-0.59;55.74;101407.44;15836044;28;20163;-62
2021/03/10 02:34:41;;;;;;;1999.90;999.90;;;;;;;-0.48;55.40;101413.97;15850574;28;20050;-60
2021/03/10 02:42:12;;;;;;;1999.90;999.90;;;;;;;-0.56;55.01;101410.75;15853520;28;20523;-63
2021/03/10 02:49:47;;;;;;;1999.90;999.90;;;;;;;-0.74;55.43;101406.25;15851378;28;20036;-62
2021/03/10 02:57:19;;;;;;;1999.90;999.90;;;;;;;-0.43;55.32;101407.72;15831540;28;20040;-62
2021/03/10 03:04:53;;;;;;;1999.90;999.90;;;;;;;-0.16;55.34;101417.06;15825425;28;20050;-62
2021/03/10 03:12:26;;;;;;;1999.90;999.90;;;;;;;-0.22;54.43;101423.53;15829974;28;20382;-62
2021/03/10 03:19:58;;;;;;;1999.90;999.90;;;;;;;-0.12;54.93;101423.72;15839053;28;20071;-61
2021/03/10 03:27:32;;;;;;;1999.90;999.90;;;;;;;-0.18;55.14;101430.19;15832396;28;20044;-61
2021/03/10 03:35:05;;;;;;;;;;;;;;;-0.42;56.16;101417.63;15837160;28;20043;-60
2021/03/10 03:42:39;;;;;;;1999.90;999.90;;;;;;;-0.86;57.40;101414.50;15818375;28;19924;-61
2021/03/10 03:50:12;;;;;;;1999.90;999.90;;;;;;;-0.70;56.66;101421.16;15826356;28;20048;-60
2021/03/10 03:57:44;;;;;;;1999.90;999.90;;;;;;;-0.48;55.47;101418.63;15840259;28;20354;-61
2021/03/10 04:05:17;;;;;;;1999.90;999.90;;;;;;;-0.40;56.26;101423.72;15830537;28;20054;-61
2021/03/10 04:12:49;;;;;;;1999.90;999.90;;;;;;;-0.41;55.36;101433.84;15826004;22;20048;-60
2021/03/10 04:20:23;;;;;;;1999.90;999.90;;;;;;;-0.48;56.07;101429.56;15810804;28;20409;-60
2021/03/10 04:27:55;;;;;;;1999.90;999.90;;;;;;;-0.60;56.53;101430.44;15809747;28;20050;-60
2021/03/10 04:35:27;;;;;;;1999.90;999.90;;;;;;;-0.78;56.70;101433.31;15823173;28;20140;-58
2021/03/10 04:42:59;;;;;;;1999.90;999.90;;;;;;;-0.73;57.28;101441.69;15814974;28;20067;-59
2021/03/10 04:50:31;;;;;;;1999.90;999.90;;;;;;;-0.79;57.74;101439.88;15842722;28;20032;-60
2021/03/10 04:58:03;;;;;;;1999.90;999.90;;;;;;;-0.82;57.25;101450.50;15828467;28;20040;-60
2021/03/10 05:05:35;;;;;;;1999.90;999.90;;;;;;;-0.85;57.47;101461.91;15799126;28;20072;-60
2021/03/10 05:13:07;;;;;;;1999.90;999.90;;;;;;;-1.01;57.29;101471.72;15856585;28;20145;-61
2021/03/10 05:20:41;;;;;;;1999.90;999.90;;;;;;;-1.32;59.19;101470.97;15832056;28;20039;-60
2021/03/10 05:28:12;;;;;;;1999.90;999.90;;;;;;;-1.33;58.86;101472.03;15842002;28;20043;-60
2021/03/10 05:35:45;;;;;;;1999.90;999.90;;;;;;;-1.29;58.75;101470.47;15842181;28;20044;-61
2021/03/10 05:43:26;;;;;;;1999.90;999.90;;;;;;;-1.36;59.27;101483.44;15800555;28;20068;-61
2021/03/10 05:50:59;;;;;;;1999.90;999.90;;;;;;;-1.30;59.19;101473.47;15852032;28;20425;-61
2021/03/10 05:58:30;;;;;;;1999.90;999.90;;;;;;;-1.36;59.69;101475.22;15834476;28;20043;-61
2021/03/10 06:06:05;;;;;;;1999.90;999.90;;;;;;;-1.21;58.70;101483.00;15816834;28;20405;-61
2021/03/10 06:13:44;;;;;;;1999.90;999.90;;;;;;;-1.23;59.56;101485.16;15835612;28;20043;-61
2021/03/10 06:21:18;;;;;;;1999.90;999.90;;;;;;;-1.00;59.16;101473.38;15820895;28;20109;-59
2021/03/10 06:28:50;;;;;;;1999.90;999.90;;;;;;;-0.88;59.32;101477.78;15864746;28;20054;-58
2021/03/10 06:36:24;;;;;;;1999.90;999.90;;;;;;;-0.50;58.34;101478.34;15806525;28;20081;-61
2021/03/10 06:43:56;;;;;;;1999.90;999.90;;;;;;;-0.31;57.87;101488.09;15828878;28;20146;-60
2021/03/10 06:51:31;;;;;;;1999.90;999.90;;;;;;;0.16;55.25;101497.00;15845381;28;20039;-60
2021/03/10 06:59:04;;;;;;;1999.90;999.90;;;;;;;1.00;53.72;101510.84;15868418;28;20065;-60
2021/03/10 07:06:38;;;;;;;1999.90;999.90;;;;;;;2.48;50.03;101524.66;15851668;28;20445;-61
2021/03/10 07:14:10;;;;;;;1999.90;999.90;;;;;;;3.76;46.12;101532.03;15851133;28;20040;-60
2021/03/10 07:21:50;;;;;;;1999.90;999.90;;;;;;;4.81;44.08;101534.59;15851188;28;20089;-59
2021/03/10 07:29:23;;;;;;;1999.90;999.90;;;;;;;5.22;42.69;101533.50;15852634;28;20407;-60
2021/03/10 07:36:56;;;;;;;1999.90;999.90;;;;;;;5.49;42.58;101544.25;15848226;28;20076;-60
2021/03/10 07:44:28;;;;;;;;;;;;;;;5.42;41.97;101554.00;15846940;28;20043;-57
2021/03/10 07:52:06;;;;;;;1999.90;999.90;;;;;;;7.15;39.96;101559.63;15845499;28;19920;-61
2021/03/10 07:59:38;;;;;;;1999.90;999.90;;;;;;;6.91;40.92;101556.75;15798631;28;20039;-62
2021/03/10 08:07:21;;;;;;;1999.90;999.90;;;;;;;8.17;37.57;101574.47;15801426;28;20047;-62
2021/03/10 08:14:52;;;;;;;1999.90;999.90;;;;;;;9.03;36.55;101576.09;15786217;28;20165;-64
2021/03/10 08:22:26;;;;;;;1999.90;999.90;;;;;;;8.56;37.39;101574.28;15788825;28;20043;-63
2021/03/10 08:29:58;;;;;;;1999.90;999.90;;;;;;;9.13;36.28;101578.72;15788427;28;20048;-64
2021/03/10 08:37:31;;;;;;;1999.90;999.90;;;;;;;8.86;36.08;101561.91;15799878;28;20528;-64
2021/03/10 08:45:04;;;;;;;1999.90;999.90;;;;;;;9.20;35.40;101572.78;15822339;28;20082;-64
2021/03/10 08:52:45;;;;;;;1999.90;999.90;;;;;;;11.11;32.62;101562.81;15860701;28;20040;-62
2021/03/10 09:00:21;;;;;;;1999.90;999.90;;;;;;;8.74;35.49;101559.53;15781202;28;20074;-61
2021/03/10 09:07:55;;;;;;;1999.90;999.90;;;;;;;9.75;33.95;101556.22;15798362;28;20496;-63
2021/03/10 09:15:28;;;;;;;;;;;;;;;10.67;33.23;101560.78;15827355;28;20059;-63
2021/03/10 09:23:12;;;;;;;1999.90;999.90;;;;;;;11.78;32.51;101579.56;15771437;28;19923;-63
2021/03/10 09:30:52;;;;;;;1999.90;999.90;;;;;;;11.90;30.54;101567.81;15794844;28;20497;-63
2021/03/10 09:38:30;;;;;;;1999.90;999.90;;;;;;;13.70;29.63;101564.78;15811822;28;20032;-63
2021/03/10 09:46:09;;;;;;;1999.90;999.90;;;;;;;14.87;28.12;101574.47;15824559;28;20192;-60
2021/03/10 09:53:44;;;;;;;1999.90;999.90;;;;;;;15.33;26.08;101569.81;15842307;27;20151;-62
2021/03/10 10:01:19;;;;;;;1999.90;999.90;;;;;;;14.16;26.02;101566.75;15853297;28;20050;-62
2021/03/10 10:08:53;;;;;;;1999.90;999.90;;;;;;;14.06;25.61;101565.13;15871265;28;20035;-58
2021/03/10 10:16:28;;;;;;;1999.90;999.90;;;;;;;13.84;25.48;101563.41;15845470;28;20068;-59
2021/03/10 10:24:05;;;;;;;1999.90;999.90;;;;;;;13.21;26.05;101562.19;15770256;28;20508;-61
2021/03/10 10:31:37;;;;;;;1999.90;999.90;;;;;;;11.87;28.04;101554.44;15764600;28;20044;-53
2021/03/10 10:39:10;;;;;;;1999.90;999.90;;;;;;;13.08;26.50;101545.53;15794262;28;20042;-54
2021/03/10 10:46:42;;;;;;;1999.90;999.90;;;;;;;13.03;25.88;101540.94;15796079;28;20040;-54
2021/03/10 10:54:14;;;;;;;1999.90;999.90;;;;;;;13.90;25.64;101536.00;15807075;28;20032;-61
2021/03/10 11:01:48;;;;;;;1999.90;999.90;;;;;;;13.82;24.93;101532.06;15788202;28;20048;-59
2021/03/10 11:09:22;;;;;;;1999.90;999.90;;;;;;;13.27;27.68;101537.66;15801777;28;20047;-58
2021/03/10 11:16:56;;;;;;;1999.90;999.90;;;;;;;14.25;25.62;101527.41;15786002;28;20040;-61
2021/03/10 11:24:35;;;;;;;1999.90;999.90;;;;;;;14.41;23.25;101517.28;15769069;28;20043;-61
2021/03/10 11:32:07;;;;;;;1999.90;999.90;;;;;;;13.51;24.59;101518.28;15803357;28;20450;-62
2021/03/10 11:39:42;;;;;;;1999.90;999.90;;;;;;;14.11;24.82;101502.41;15803101;28;20500;-61
2021/03/10 11:47:16;;;;;;;1999.90;999.90;;;;;;;14.33;22.88;101484.44;15762793;28;20084;-60
2021/03/10 11:54:48;;;;;;;1999.90;999.90;;;;;;;16.30;22.56;101493.22;15786647;28;20036;-59
2021/03/10 12:02:19;;;;;;;1999.90;999.90;;;;;;;15.12;22.15;101469.47;15796790;28;20098;-60
2021/03/10 12:09:58;;;;;;;1999.90;999.90;;;;;;;15.13;22.32;101459.88;15798431;28;20040;-58
2021/03/10 12:17:30;;;;;;;1999.90;999.90;;;;;;;16.24;21.15;101458.03;15763298;28;20040;-60
2021/03/10 12:25:02;;;;;;;1999.90;999.90;;;;;;;16.39;20.91;101452.50;15797580;28;20485;-59
2021/03/10 12:32:35;;;;;;;1999.90;999.90;;;;;;;15.80;22.51;101452.16;15762863;28;20193;-58
2021/03/10 12:40:09;;;;;;;1999.90;999.90;;;;;;;16.46;22.40;101449.06;15783492;28;20047;-60
2021/03/10 12:47:40;;;;;;;1999.90;999.90;;;;;;;18.53;20.00;101440.50;15796378;28;20066;-63
2021/03/10 12:55:13;;;;;;;1999.90;999.90;;;;;;;17.73;20.52;101436.19;15798441;28;20109;-61
2021/03/10 13:02:47;;;;;;;1999.90;999.90;;;;;;;17.44;21.16;101431.78;15780606;28;20108;-59
2021/03/10 13:10:19;;;;;;;1999.90;999.90;;;;;;;20.06;18.86;101440.66;15797372;28;20040;-58
2021/03/10 13:17:51;;;;;;;1999.90;999.90;;;;;;;20.98;17.43;101438.34;15775077;28;20044;-57
2021/03/10 13:25:24;;;;;;;1999.90;999.90;;;;;;;23.98;15.94;101424.75;15779921;28;20083;-62
2021/03/10 13:32:56;;;;;;;1999.90;999.90;;;;;;;19.17;19.29;101402.25;15800507;28;20052;-59
2021/03/10 13:40:28;;;;;;;1999.90;999.90;;;;;;;18.57;21.24;101399.84;15810007;28;20134;-60
2021/03/10 13:48:00;;;;;;;1999.90;999.90;;;;;;;14.77;25.28;101392.28;15805654;28;20048;-55
2021/03/10 13:55:33;;;;;;;1999.90;999.90;;;;;;;13.57;26.27;101384.38;15800267;28;20129;-58
2021/03/10 14:03:05;;;;;;;1999.90;999.90;;;;;;;13.45;26.83;101373.03;15794449;28;20134;-58
2021/03/10 14:10:38;;;;;;;1999.90;999.90;;;;;;;13.08;27.64;101364.22;15776594;28;20040;-61
2021/03/10 14:18:09;;;;;;;1999.90;999.90;;;;;;;12.02;29.89;101366.63;15799484;28;20496;-60
2021/03/10 14:25:42;;;;;;;1999.90;999.90;;;;;;;11.74;30.38;101359.63;15805037;28;20063;-59
2021/03/10 14:33:13;;;;;;;1999.90;999.90;;;;;;;11.07;31.82;101341.16;15805900;28;21158;-58
2021/03/10 14:40:46;;;;;;;1999.90;999.90;;;;;;;11.23;32.59;101344.34;15783036;28;20149;-60
2021/03/10 14:48:17;;;;;;;1999.90;999.90;;;;;;;11.33;33.28;101346.84;15797437;28;20047;-59
2021/03/10 14:55:50;;;;;;;1999.90;999.90;;;;;;;11.30;33.21;101338.28;15783308;28;20052;-60
2021/03/10 15:03:21;;;;;;;1999.90;999.90;;;;;;;10.89;34.55;101333.84;15800713;28;20536;-61
2021/03/10 15:10:54;;;;;;;1999.90;999.90;;;;;;;10.84;36.39;101323.63;15801678;28;20504;-63
2021/03/10 15:18:27;;;;;;;1999.90;999.90;;;;;;;11.17;35.96;101328.88;15767437;28;20101;-61
2021/03/10 15:25:59;;;;;;;1999.90;999.90;;;;;;;10.80;36.12;101325.41;15800783;28;20044;-62
2021/03/10 15:33:30;;;;;;;1999.90;999.90;;;;;;;10.53;36.96;101308.84;15801698;28;20382;-62
2021/03/10 15:41:03;;;;;;;1999.90;999.90;;;;;;;10.76;37.12;101304.03;15793330;28;20044;-62
2021/03/10 15:48:35;;;;;;;1999.90;999.90;;;;;;;10.66;37.36;101296.75;15759346;28;20346;-62
2021/03/10 15:56:08;;;;;;;1999.90;999.90;;;;;;;10.41;37.89;101299.06;15789063;28;20138;-62
2021/03/10 16:03:39;;;;;;;1999.90;999.90;;;;;;;10.44;37.72;101288.41;15766240;28;20048;-63
2021/03/10 16:11:12;;;;;;;1999.90;999.90;;;;;;;10.40;37.82;101274.25;15811003;28;20533;-62
2021/03/10 16:18:43;;;;;;;1999.90;999.90;;;;;;;10.27;37.52;101266.78;15768366;28;20050;-62
2021/03/10 16:26:15;;;;;;;1999.90;999.90;;;;;;;9.87;38.46;101265.78;15791689;28;20047;-63
2021/03/10 16:33:50;;;;;;;1999.90;999.90;;;;;;;9.74;39.14;101259.97;15780904;28;20084;-63
2021/03/10 16:41:22;;;;;;;;;;;;;;;9.42;38.94;101260.13;15791134;28;20131;-59
2021/03/10 16:48:54;;;;;;;1999.90;999.90;;;;;;;9.34;39.59;101263.66;15792889;28;19920;-62
2021/03/10 16:56:27;;;;;;;1999.90;999.90;;;;;;;9.34;39.79;101258.09;15742069;28;20048;-61
2021/03/10 17:03:59;;;;;;;1999.90;999.90;;;;;;;8.82;40.61;101263.88;15812108;28;20056;-62
2021/03/10 17:11:31;;;;;;;1999.90;999.90;;;;;;;8.79;40.87;101274.81;15779342;28;20145;-60
2021/03/10 17:19:03;;;;;;;1999.90;999.90;;;;;;;8.99;41.39;101274.41;15787506;28;20504;-62
2021/03/10 17:26:35;;;;;;;1999.90;999.90;;;;;;;8.73;41.78;101270.44;15777548;28;20492;-61
2021/03/10 17:34:07;;;;;;;1999.90;999.90;;;;;;;8.25;42.67;101271.56;15781737;28;20036;-60
2021/03/10 17:41:39;;;;;;;1999.90;999.90;;;;;;;8.16;43.75;101269.78;15756161;28;20040;-60
2021/03/10 17:49:11;;;;;;;1999.90;999.90;;;;;;;7.50;44.92;101261.34;15785416;28;20210;-61
2021/03/10 17:56:43;;;;;;;1999.90;999.90;;;;;;;7.62;44.80;101252.56;15768799;28;20052;-61
2021/03/10 18:04:15;;;;;;;1999.90;999.90;;;;;;;7.07;46.02;101243.03;15766971;28;20051;-63
2021/03/10 18:11:47;;;;;;;1999.90;999.90;;;;;;;7.04;46.43;101233.34;15793796;28;20560;-62
2021/03/10 18:19:18;;;;;;;1999.90;999.90;;;;;;;7.09;45.34;101221.38;15801820;28;20058;-62
2021/03/10 18:26:51;;;;;;;1999.90;999.90;;;;;;;7.10;45.10;101226.63;15806819;28;20051;-62
2021/03/10 18:34:22;;;;;;;1999.90;999.90;;;;;;;7.02;45.02;101216.19;15807180;28;20442;-61
2021/03/10 18:41:55;;;;;;;1999.90;999.90;;;;;;;7.19;44.26;101215.66;15809879;28;20102;-61
2021/03/10 18:49:26;;;;;;;1999.90;999.90;;;;;;;6.93;44.83;101209.63;15806791;28;20048;-61
2021/03/10 18:56:59;;;;;;;1999.90;999.90;;;;;;;6.77;45.26;101233.09;15831526;28;20544;-61
2021/03/10 19:04:30;;;;;;;1999.90;999.90;;;;;;;6.72;44.63;101219.31;15852597;28;20051;-62
2021/03/10 19:12:03;;;;;;;1999.90;999.90;;;;;;;6.01;47.67;101207.00;15790425;28;20036;-60
2021/03/10 19:19:36;;;;;;;1999.90;999.90;;;;;;;5.24;49.61;101175.44;15839275;28;20531;-61
2021/03/10 19:27:09;;;;;;;1999.90;999.90;;;;;;;5.36;49.83;101162.09;15797735;28;20079;-61
2021/03/10 19:34:41;;;;;;;1999.90;999.90;;;;;;;5.11;49.41;101169.44;15831568;28;20040;-62
2021/03/10 19:42:13;;;;;;;1999.90;999.90;;;;;;;5.07;49.46;101153.69;15812368;28;20843;-62
2021/03/10 19:49:45;;;;;;;1999.90;999.90;;;;;;;5.27;48.95;101153.56;15831679;28;20425;-62
2021/03/10 19:57:19;;;;;;;1999.90;999.90;;;;;;;5.40;48.38;101139.06;15794428;28;20075;-63
2021/03/10 20:04:51;;;;;;;1999.90;999.90;;;;;;;5.34;47.53;101136.66;15855970;28;20082;-63
2021/03/10 20:12:23;;;;;;;1999.90;999.90;;;;;;;5.43;47.13;101119.13;15830339;28;20032;-65
2021/03/10 20:19:54;;;;;;;1999.90;999.90;;;;;;;5.53;47.41;101100.78;15828029;28;20088;-64
2021/03/10 20:27:27;;;;;;;1999.90;999.90;;;;;;;5.17;48.09;101079.75;15794944;28;20161;-62
2021/03/10 20:34:59;;;;;;;1999.90;999.90;;;;;;;5.12;48.76;101068.72;15828353;28;20047;-62
2021/03/10 20:42:31;;;;;;;1999.90;999.90;;;;;;;5.41;48.10;101063.22;15825528;28;20138;-65
2021/03/10 20:50:03;;;;;;;1999.90;999.90;;;;;;;5.28;48.56;101068.59;15825436;28;20571;-64
2021/03/10 20:57:36;;;;;;;1999.90;999.90;;;;;;;5.33;48.76;101052.78;15824105;28;20522;-58
2021/03/10 21:05:12;;;;;;;1999.90;999.90;;;;;;;5.42;47.73;101034.47;15802893;28;20047;-61
2021/03/10 21:12:46;;;;;;;1999.90;999.90;;;;;;;5.32;47.67;101028.19;15784557;28;20048;-60
2021/03/10 21:20:19;;;;;;;1999.90;999.90;;;;;;;5.62;47.69;101022.31;15780338;28;20048;-61
2021/03/10 21:27:51;;;;;;;1999.90;999.90;;;;;;;5.32;49.17;100994.97;15797518;28;20054;-62
2021/03/10 21:35:23;;;;;;;1999.90;999.90;;;;;;;4.90;49.98;100958.56;15772772;28;20044;-60
2021/03/10 21:42:56;;;;;;;1999.90;999.90;;;;;;;4.70;51.52;100935.78;15795560;28;20036;-61
2021/03/10 21:50:27;;;;;;;1999.90;999.90;;;;;;;4.91;51.34;100935.31;15790883;28;20105;-61
2021/03/10 21:58:00;;;;;;;1999.90;999.90;;;;;;;4.84;51.80;100914.63;15805740;28;20080;-61
2021/03/10 22:05:32;;;;;;;1999.90;999.90;;;;;;;4.93;52.38;100907.38;15827728;28;20551;-62
2021/03/10 22:13:04;;;;;;;1999.90;999.90;;;;;;;5.00;52.37;100890.41;15868927;22;20063;-64
2021/03/10 22:20:36;;;;;;;1999.90;999.90;;;;;;;4.97;52.20;100874.41;15827353;28;20037;-63
2021/03/10 22:28:08;;;;;;;1999.90;999.90;;;;;;;4.86;52.93;100851.56;15798486;28;20040;-64
2021/03/10 22:35:40;;;;;;;1999.90;999.90;;;;;;;4.84;52.87;100835.28;15820872;28;20119;-64
2021/03/10 22:43:15;;;;;;;1999.90;999.90;;;;;;;5.01;53.12;100829.31;15843059;28;20044;-64
2021/03/10 22:50:47;;;;;;;1999.90;999.90;;;;;;;5.18;52.97;100806.69;15767980;28;20033;-64
2021/03/10 22:58:19;;;;;;;1999.90;999.90;;;;;;;5.04;53.63;100792.75;15753470;28;20075;-63
2021/03/10 23:05:51;;;;;;;1999.90;999.90;;;;;;;4.59;55.24;100788.53;15786162;28;20113;-64
2021/03/10 23:13:26;;;;;;;1999.90;999.90;;;;;;;4.64;55.73;100769.94;15788733;28;20040;-64
2021/03/10 23:20:59;;;;;;;1999.90;999.90;;;;;;;4.81;55.45;100757.63;15765694;28;20064;-64
2021/03/10 23:28:32;;;;;;;1999.90;999.90;;;;;;;4.81;56.49;100754.88;15769218;28;20486;-63
2021/03/10 23:36:05;;;;;;;1999.90;999.90;;;;;;;4.74;57.20;100729.50;15753559;28;20133;-63
2021/03/10 23:43:38;;;;;;;1999.90;999.90;;;;;;;5.02;56.71;100716.72;15752193;28;20489;-63
2021/03/10 23:51:09;;;;;;;1999.90;999.90;;;;;;;4.78;57.77;100716.72;15747298;28;20463;-63
2021/03/10 23:58:42;;;;;;;1999.90;999.90;;;;;;;4.75;58.24;100703.50;15769465;28;20037;-64
